sensor_id;sensor_type;location;lat;lon;timestamp;temperature;humidity
7206;DHT22;3644;53.480;10.004;2023-06-10T00:01:45;16.50;99.90
7206;DHT22;3644;53.480;10.004;2023-06-10T00:04:14;16.30;99.90
7206;DHT22;3644;53.480;10.004;2023-06-10T00:06:41;16.20;99.90
7206;DHT22;3644;53.480;10.004;2023-06-10T00:09:07;16.20;99.90
7206;DHT22;3644;53.480;10.004;2023-06-10T00:11:38;16.10;99.90
7206;DHT22;3644;53.480;10.004;2023-06-10T00:14:04;16.00;99.90
7206;DHT22;3644;53.480;10.004;2023-06-10T00:16:30;15.90;99.90
7206;DHT22;3644;53.480;10.004;2023-06-10T00:18:55;15.80;99.90
7206;DHT22;3644;53.480;10.004;2023-06-10T00:21:25;16.10;99.90
7206;DHT22;3644;53.480;10.004;2023-06-10T00:23:51;16.10;99.90
7206;DHT22;3644;53.480;10.004;2023-06-10T00:26:17;16.10;99.90
7206;DHT22;3644;53.480;10.004;2023-06-10T00:28:42;16.00;99.90
7206;DHT22;3644;53.480;10.004;2023-06-10T00:31:10;16.10;99.90
7206;DHT22;3644;53.480;10.004;2023-06-10T00:33:35;15.90;99.90
7206;DHT22;3644;53.480;10.004;2023-06-10T00:36:01;15.80;99.90
7206;DHT22;3644;53.480;10.004;2023-06-10T00:38:26;15.90;99.90
7206;DHT22;3644;53.480;10.004;2023-06-10T00:40:52;16.00;99.90
7206;DHT22;3644;53.480;10.004;2023-06-10T00:43:17;16.10;99.90
7206;DHT22;3644;53.480;10.004;2023-06-10T00:45:43;16.00;99.90
7206;DHT22;3644;53.480;10.004;2023-06-10T00:48:09;16.00;99.90
7206;DHT22;3644;53.480;10.004;2023-06-10T00:50:35;15.90;99.90
7206;DHT22;3644;53.480;10.004;2023-06-10T00:53:04;16.00;99.90
7206;DHT22;3644;53.480;10.004;2023-06-10T00:55:30;15.90;99.90
7206;DHT22;3644;53.480;10.004;2023-06-10T00:57:58;16.00;99.90
7206;DHT22;3644;53.480;10.004;2023-06-10T01:00:23;16.00;99.90
7206;DHT22;3644;53.480;10.004;2023-06-10T01:02:49;15.90;99.90
7206;DHT22;3644;53.480;10.004;2023-06-10T01:05:17;15.80;99.90
7206;DHT22;3644;53.480;10.004;2023-06-10T01:08:00;15.70;99.90
7206;DHT22;3644;53.480;10.004;2023-06-10T01:10:33;15.40;99.90
7206;DHT22;3644;53.480;10.004;2023-06-10T01:13:07;15.40;99.90
7206;DHT22;3644;53.480;10.004;2023-06-10T01:15:37;15.40;99.90
7206;DHT22;3644;53.480;10.004;2023-06-10T01:18:08;15.20;99.90
7206;DHT22;3644;53.480;10.004;2023-06-10T01:20:36;15.30;99.90
7206;DHT22;3644;53.480;10.004;2023-06-10T01:23:05;15.40;99.90
7206;DHT22;3644;53.480;10.004;2023-06-10T01:25:31;15.50;99.90
7206;DHT22;3644;53.480;10.004;2023-06-10T01:28:22;15.50;99.90
7206;DHT22;3644;53.480;10.004;2023-06-10T01:34:00;15.30;99.90
7206;DHT22;3644;53.480;10.004;2023-06-10T01:36:26;15.30;99.90
7206;DHT22;3644;53.480;10.004;2023-06-10T01:38:53;15.10;99.90
7206;DHT22;3644;53.480;10.004;2023-06-10T01:41:19;15.20;99.90
7206;DHT22;3644;53.480;10.004;2023-06-10T01:43:47;15.30;99.90
7206;DHT22;3644;53.480;10.004;2023-06-10T01:46:13;15.50;99.90
7206;DHT22;3644;53.480;10.004;2023-06-10T01:48:40;15.40;99.90
7206;DHT22;3644;53.480;10.004;2023-06-10T01:51:06;15.30;99.90
7206;DHT22;3644;53.480;10.004;2023-06-10T01:53:31;15.10;99.90
7206;DHT22;3644;53.480;10.004;2023-06-10T01:55:57;18.10;99.90
7206;DHT22;3644;53.480;10.004;2023-06-10T01:58:23;15.00;99.90
7206;DHT22;3644;53.480;10.004;2023-06-10T02:00:48;14.90;99.90
7206;DHT22;3644;53.480;10.004;2023-06-10T02:03:14;15.00;99.90
7206;DHT22;3644;53.480;10.004;2023-06-10T02:05:39;14.90;99.90
7206;DHT22;3644;53.480;10.004;2023-06-10T02:08:05;14.70;99.90
7206;DHT22;3644;53.480;10.004;2023-06-10T02:10:30;14.70;99.90
7206;DHT22;3644;53.480;10.004;2023-06-10T02:12:56;14.60;99.90
7206;DHT22;3644;53.480;10.004;2023-06-10T02:15:21;14.60;99.90
7206;DHT22;3644;53.480;10.004;2023-06-10T02:17:47;14.60;99.90
7206;DHT22;3644;53.480;10.004;2023-06-10T02:20:14;14.60;99.90
7206;DHT22;3644;53.480;10.004;2023-06-10T02:22:40;14.60;99.90
7206;DHT22;3644;53.480;10.004;2023-06-10T02:25:06;14.70;99.90
7206;DHT22;3644;53.480;10.004;2023-06-10T02:27:31;14.60;99.90
7206;DHT22;3644;53.480;10.004;2023-06-10T02:29:57;14.60;99.90
7206;DHT22;3644;53.480;10.004;2023-06-10T02:32:23;14.60;99.90
7206;DHT22;3644;53.480;10.004;2023-06-10T02:34:48;14.60;99.90
7206;DHT22;3644;53.480;10.004;2023-06-10T02:37:14;14.60;99.90
7206;DHT22;3644;53.480;10.004;2023-06-10T02:39:40;14.50;99.90
7206;DHT22;3644;53.480;10.004;2023-06-10T02:42:06;14.30;99.90
7206;DHT22;3644;53.480;10.004;2023-06-10T02:44:32;14.50;99.90
7206;DHT22;3644;53.480;10.004;2023-06-10T02:46:58;14.50;99.90
7206;DHT22;3644;53.480;10.004;2023-06-10T02:49:23;14.40;99.90
7206;DHT22;3644;53.480;10.004;2023-06-10T02:51:50;14.50;99.90
7206;DHT22;3644;53.480;10.004;2023-06-10T02:54:21;14.60;99.90
7206;DHT22;3644;53.480;10.004;2023-06-10T02:56:47;14.70;99.90
7206;DHT22;3644;53.480;10.004;2023-06-10T02:59:14;14.70;99.90
7206;DHT22;3644;53.480;10.004;2023-06-10T03:01:40;14.70;99.90
7206;DHT22;3644;53.480;10.004;2023-06-10T03:04:06;14.70;99.90
7206;DHT22;3644;53.480;10.004;2023-06-10T03:06:32;14.70;99.90
7206;DHT22;3644;53.480;10.004;2023-06-10T03:09:01;14.60;99.90
7206;DHT22;3644;53.480;10.004;2023-06-10T03:11:29;14.60;99.90
7206;DHT22;3644;53.480;10.004;2023-06-10T03:13:54;14.60;99.90
7206;DHT22;3644;53.480;10.004;2023-06-10T03:16:20;14.70;99.90
7206;DHT22;3644;53.480;10.004;2023-06-10T03:18:46;14.70;99.90
7206;DHT22;3644;53.480;10.004;2023-06-10T03:21:11;14.70;99.90
7206;DHT22;3644;53.480;10.004;2023-06-10T03:23:37;14.80;99.90
7206;DHT22;3644;53.480;10.004;2023-06-10T03:26:03;14.70;99.90
7206;DHT22;3644;53.480;10.004;2023-06-10T03:28:30;14.70;99.90
7206;DHT22;3644;53.480;10.004;2023-06-10T03:30:56;14.70;99.90
7206;DHT22;3644;53.480;10.004;2023-06-10T03:33:21;14.70;99.90
7206;DHT22;3644;53.480;10.004;2023-06-10T03:35:47;14.70;99.90
7206;DHT22;3644;53.480;10.004;2023-06-10T03:38:13;14.70;99.90
7206;DHT22;3644;53.480;10.004;2023-06-10T03:40:38;14.70;99.90
7206;DHT22;3644;53.480;10.004;2023-06-10T03:43:04;14.80;99.90
7206;DHT22;3644;53.480;10.004;2023-06-10T03:45:29;14.80;99.90
7206;DHT22;3644;53.480;10.004;2023-06-10T03:47:55;14.90;99.90
7206;DHT22;3644;53.480;10.004;2023-06-10T03:50:21;15.00;99.90
7206;DHT22;3644;53.480;10.004;2023-06-10T03:52:48;15.20;99.90
7206;DHT22;3644;53.480;10.004;2023-06-10T03:55:14;15.40;99.90
7206;DHT22;3644;53.480;10.004;2023-06-10T03:57:39;15.50;99.90
7206;DHT22;3644;53.480;10.004;2023-06-10T04:00:05;15.30;99.90
7206;DHT22;3644;53.480;10.004;2023-06-10T04:02:36;15.20;99.90
7206;DHT22;3644;53.480;10.004;2023-06-10T04:05:02;15.10;99.90
7206;DHT22;3644;53.480;10.004;2023-06-10T04:07:28;15.20;99.90
7206;DHT22;3644;53.480;10.004;2023-06-10T04:09:53;15.50;99.90
7206;DHT22;3644;53.480;10.004;2023-06-10T04:12:19;15.60;99.90
7206;DHT22;3644;53.480;10.004;2023-06-10T04:14:45;15.60;99.90
7206;DHT22;3644;53.480;10.004;2023-06-10T04:17:10;15.50;99.90
7206;DHT22;3644;53.480;10.004;2023-06-10T04:19:36;15.30;99.90
7206;DHT22;3644;53.480;10.004;2023-06-10T04:22:01;15.30;99.90
7206;DHT22;3644;53.480;10.004;2023-06-10T04:24:28;15.30;99.90
7206;DHT22;3644;53.480;10.004;2023-06-10T04:26:54;15.30;99.90
7206;DHT22;3644;53.480;10.004;2023-06-10T04:29:20;15.40;99.90
7206;DHT22;3644;53.480;10.004;2023-06-10T04:31:45;15.40;99.90
7206;DHT22;3644;53.480;10.004;2023-06-10T04:34:12;15.40;99.90
7206;DHT22;3644;53.480;10.004;2023-06-10T04:36:37;15.40;99.90
7206;DHT22;3644;53.480;10.004;2023-06-10T04:39:03;15.50;99.90
7206;DHT22;3644;53.480;10.004;2023-06-10T04:41:29;15.50;99.90
7206;DHT22;3644;53.480;10.004;2023-06-10T04:43:55;15.40;99.90
7206;DHT22;3644;53.480;10.004;2023-06-10T04:46:20;15.60;99.90
7206;DHT22;3644;53.480;10.004;2023-06-10T04:48:45;15.60;99.90
7206;DHT22;3644;53.480;10.004;2023-06-10T04:51:12;15.50;99.90
7206;DHT22;3644;53.480;10.004;2023-06-10T04:53:38;15.50;99.90
7206;DHT22;3644;53.480;10.004;2023-06-10T04:56:04;15.40;99.90
7206;DHT22;3644;53.480;10.004;2023-06-10T04:58:29;15.60;99.90
7206;DHT22;3644;53.480;10.004;2023-06-10T05:00:55;15.80;99.90
7206;DHT22;3644;53.480;10.004;2023-06-10T05:03:21;15.90;99.90
7206;DHT22;3644;53.480;10.004;2023-06-10T05:05:46;16.10;99.90
7206;DHT22;3644;53.480;10.004;2023-06-10T05:08:12;16.10;99.90
7206;DHT22;3644;53.480;10.004;2023-06-10T05:10:37;16.10;99.90
7206;DHT22;3644;53.480;10.004;2023-06-10T05:13:03;16.00;99.90
7206;DHT22;3644;53.480;10.004;2023-06-10T05:15:28;16.00;99.90
7206;DHT22;3644;53.480;10.004;2023-06-10T05:17:56;16.10;99.90
7206;DHT22;3644;53.480;10.004;2023-06-10T05:20:23;16.20;99.90
7206;DHT22;3644;53.480;10.004;2023-06-10T05:22:50;16.00;99.90
7206;DHT22;3644;53.480;10.004;2023-06-10T05:25:16;16.10;99.90
7206;DHT22;3644;53.480;10.004;2023-06-10T05:27:42;16.20;99.90
7206;DHT22;3644;53.480;10.004;2023-06-10T05:30:09;16.20;99.90
7206;DHT22;3644;53.480;10.004;2023-06-10T05:32:35;16.40;99.90
7206;DHT22;3644;53.480;10.004;2023-06-10T05:35:01;16.20;99.90
7206;DHT22;3644;53.480;10.004;2023-06-10T05:37:26;16.10;99.90
7206;DHT22;3644;53.480;10.004;2023-06-10T05:39:52;16.40;99.90
7206;DHT22;3644;53.480;10.004;2023-06-10T05:42:18;16.50;99.90
7206;DHT22;3644;53.480;10.004;2023-06-10T05:44:43;16.50;99.90
7206;DHT22;3644;53.480;10.004;2023-06-10T05:47:09;16.70;99.90
7206;DHT22;3644;53.480;10.004;2023-06-10T05:49:34;16.70;99.90
7206;DHT22;3644;53.480;10.004;2023-06-10T05:52:00;16.80;99.90
7206;DHT22;3644;53.480;10.004;2023-06-10T05:54:26;17.30;99.90
7206;DHT22;3644;53.480;10.004;2023-06-10T05:56:51;17.40;99.90
7206;DHT22;3644;53.480;10.004;2023-06-10T05:59:17;17.50;99.90
7206;DHT22;3644;53.480;10.004;2023-06-10T06:01:43;17.70;99.90
7206;DHT22;3644;53.480;10.004;2023-06-10T06:04:08;17.80;99.90
7206;DHT22;3644;53.480;10.004;2023-06-10T06:06:35;18.10;99.90
7206;DHT22;3644;53.480;10.004;2023-06-10T06:09:01;18.00;99.90
7206;DHT22;3644;53.480;10.004;2023-06-10T06:11:26;18.10;99.90
7206;DHT22;3644;53.480;10.004;2023-06-10T06:13:52;18.20;99.90
7206;DHT22;3644;53.480;10.004;2023-06-10T06:16:17;18.40;99.90
7206;DHT22;3644;53.480;10.004;2023-06-10T06:18:43;18.50;99.90
7206;DHT22;3644;53.480;10.004;2023-06-10T06:21:09;18.80;99.90
7206;DHT22;3644;53.480;10.004;2023-06-10T06:23:34;18.80;99.90
7206;DHT22;3644;53.480;10.004;2023-06-10T06:26:00;18.60;99.90
7206;DHT22;3644;53.480;10.004;2023-06-10T06:28:26;18.50;99.90
7206;DHT22;3644;53.480;10.004;2023-06-10T06:30:57;18.40;99.90
7206;DHT22;3644;53.480;10.004;2023-06-10T06:33:23;18.40;99.90
7206;DHT22;3644;53.480;10.004;2023-06-10T06:35:48;18.40;99.90
7206;DHT22;3644;53.480;10.004;2023-06-10T06:38:14;18.40;99.90
7206;DHT22;3644;53.480;10.004;2023-06-10T06:40:39;18.60;99.90
7206;DHT22;3644;53.480;10.004;2023-06-10T06:43:05;18.80;99.90
7206;DHT22;3644;53.480;10.004;2023-06-10T06:45:31;18.70;99.90
7206;DHT22;3644;53.480;10.004;2023-06-10T06:47:56;18.80;99.90
7206;DHT22;3644;53.480;10.004;2023-06-10T06:50:22;19.10;99.90
7206;DHT22;3644;53.480;10.004;2023-06-10T06:52:47;19.50;99.90
7206;DHT22;3644;53.480;10.004;2023-06-10T06:55:16;19.60;99.90
7206;DHT22;3644;53.480;10.004;2023-06-10T06:57:41;19.60;99.90
7206;DHT22;3644;53.480;10.004;2023-06-10T07:00:07;19.70;99.90
7206;DHT22;3644;53.480;10.004;2023-06-10T07:02:34;19.90;99.90
7206;DHT22;3644;53.480;10.004;2023-06-10T07:05:00;20.20;99.90
7206;DHT22;3644;53.480;10.004;2023-06-10T07:07:26;20.20;99.90
7206;DHT22;3644;53.480;10.004;2023-06-10T07:09:52;20.30;99.90
7206;DHT22;3644;53.480;10.004;2023-06-10T07:12:18;20.50;99.90
7206;DHT22;3644;53.480;10.004;2023-06-10T07:14:44;20.80;99.90
7206;DHT22;3644;53.480;10.004;2023-06-10T07:17:09;20.80;99.90
7206;DHT22;3644;53.480;10.004;2023-06-10T07:19:35;21.10;99.90
7206;DHT22;3644;53.480;10.004;2023-06-10T07:22:01;21.10;99.90
7206;DHT22;3644;53.480;10.004;2023-06-10T07:24:26;21.00;99.90
7206;DHT22;3644;53.480;10.004;2023-06-10T07:26:52;20.90;99.90
7206;DHT22;3644;53.480;10.004;2023-06-10T07:29:17;20.90;99.90
7206;DHT22;3644;53.480;10.004;2023-06-10T07:31:43;22.00;99.90
7206;DHT22;3644;53.480;10.004;2023-06-10T07:34:08;21.30;99.90
7206;DHT22;3644;53.480;10.004;2023-06-10T07:36:34;21.20;99.90
7206;DHT22;3644;53.480;10.004;2023-06-10T07:38:59;21.30;99.90
7206;DHT22;3644;53.480;10.004;2023-06-10T07:41:25;21.40;99.90
7206;DHT22;3644;53.480;10.004;2023-06-10T07:43:52;21.70;99.90
7206;DHT22;3644;53.480;10.004;2023-06-10T07:46:21;21.80;99.90
7206;DHT22;3644;53.480;10.004;2023-06-10T07:48:47;21.30;99.90
7206;DHT22;3644;53.480;10.004;2023-06-10T07:51:13;21.30;99.90
7206;DHT22;3644;53.480;10.004;2023-06-10T07:53:38;21.30;99.90
7206;DHT22;3644;53.480;10.004;2023-06-10T07:56:04;21.20;99.90
7206;DHT22;3644;53.480;10.004;2023-06-10T07:58:29;21.20;99.90
7206;DHT22;3644;53.480;10.004;2023-06-10T08:00:55;21.40;99.90
7206;DHT22;3644;53.480;10.004;2023-06-10T08:03:20;21.60;99.90
7206;DHT22;3644;53.480;10.004;2023-06-10T08:05:46;21.90;99.90
7206;DHT22;3644;53.480;10.004;2023-06-10T08:08:13;22.10;99.90
7206;DHT22;3644;53.480;10.004;2023-06-10T08:10:38;22.20;99.90
7206;DHT22;3644;53.480;10.004;2023-06-10T08:13:04;22.20;99.90
7206;DHT22;3644;53.480;10.004;2023-06-10T08:15:29;22.10;99.90
7206;DHT22;3644;53.480;10.004;2023-06-10T08:17:55;21.90;99.90
7206;DHT22;3644;53.480;10.004;2023-06-10T08:20:22;21.80;99.90
7206;DHT22;3644;53.480;10.004;2023-06-10T08:22:47;22.10;99.90
7206;DHT22;3644;53.480;10.004;2023-06-10T08:25:13;22.40;99.90
7206;DHT22;3644;53.480;10.004;2023-06-10T08:27:38;22.50;99.90
7206;DHT22;3644;53.480;10.004;2023-06-10T08:30:04;22.30;99.90
7206;DHT22;3644;53.480;10.004;2023-06-10T08:32:30;22.00;99.90
7206;DHT22;3644;53.480;10.004;2023-06-10T08:34:56;21.80;99.90
7206;DHT22;3644;53.480;10.004;2023-06-10T08:37:21;22.20;99.90
7206;DHT22;3644;53.480;10.004;2023-06-10T08:39:47;22.60;99.90
7206;DHT22;3644;53.480;10.004;2023-06-10T08:42:22;22.80;99.90
7206;DHT22;3644;53.480;10.004;2023-06-10T08:44:53;23.00;99.90
7206;DHT22;3644;53.480;10.004;2023-06-10T08:47:19;22.80;99.90
7206;DHT22;3644;53.480;10.004;2023-06-10T08:49:47;22.60;99.90
7206;DHT22;3644;53.480;10.004;2023-06-10T08:52:17;22.50;99.90
7206;DHT22;3644;53.480;10.004;2023-06-10T08:55:00;22.70;99.90
7206;DHT22;3644;53.480;10.004;2023-06-10T08:57:28;22.80;99.90
7206;DHT22;3644;53.480;10.004;2023-06-10T08:59:56;22.60;99.90
7206;DHT22;3644;53.480;10.004;2023-06-10T09:02:23;22.70;99.90
7206;DHT22;3644;53.480;10.004;2023-06-10T09:04:49;22.60;99.90
7206;DHT22;3644;53.480;10.004;2023-06-10T09:07:16;22.90;99.90
7206;DHT22;3644;53.480;10.004;2023-06-10T09:09:43;23.00;99.90
7206;DHT22;3644;53.480;10.004;2023-06-10T09:12:09;23.20;99.90
7206;DHT22;3644;53.480;10.004;2023-06-10T09:14:35;23.10;99.90
7206;DHT22;3644;53.480;10.004;2023-06-10T09:17:02;23.30;99.90
7206;DHT22;3644;53.480;10.004;2023-06-10T09:19:28;23.40;99.90
7206;DHT22;3644;53.480;10.004;2023-06-10T09:21:54;23.50;99.90
7206;DHT22;3644;53.480;10.004;2023-06-10T09:24:22;23.50;99.90
7206;DHT22;3644;53.480;10.004;2023-06-10T09:26:48;23.30;99.90
7206;DHT22;3644;53.480;10.004;2023-06-10T09:29:13;23.50;99.90
7206;DHT22;3644;53.480;10.004;2023-06-10T09:31:40;23.80;99.90
7206;DHT22;3644;53.480;10.004;2023-06-10T09:34:12;23.90;99.90
7206;DHT22;3644;53.480;10.004;2023-06-10T09:36:39;23.60;99.90
7206;DHT22;3644;53.480;10.004;2023-06-10T09:39:05;23.90;99.90
7206;DHT22;3644;53.480;10.004;2023-06-10T09:41:36;24.10;99.90
7206;DHT22;3644;53.480;10.004;2023-06-10T09:44:14;24.30;99.90
7206;DHT22;3644;53.480;10.004;2023-06-10T09:46:41;24.20;99.90
7206;DHT22;3644;53.480;10.004;2023-06-10T09:49:06;24.20;99.90
7206;DHT22;3644;53.480;10.004;2023-06-10T09:51:32;24.50;99.90
7206;DHT22;3644;53.480;10.004;2023-06-10T09:53:58;24.80;99.90
7206;DHT22;3644;53.480;10.004;2023-06-10T09:56:34;24.60;99.90
7206;DHT22;3644;53.480;10.004;2023-06-10T09:59:00;24.60;99.90
7206;DHT22;3644;53.480;10.004;2023-06-10T10:01:26;24.40;99.90
7206;DHT22;3644;53.480;10.004;2023-06-10T10:03:52;24.40;99.90
7206;DHT22;3644;53.480;10.004;2023-06-10T10:06:18;24.70;99.90
7206;DHT22;3644;53.480;10.004;2023-06-10T10:08:49;25.20;99.90
7206;DHT22;3644;53.480;10.004;2023-06-10T10:11:17;25.10;99.90
7206;DHT22;3644;53.480;10.004;2023-06-10T10:13:45;25.10;99.90
7206;DHT22;3644;53.480;10.004;2023-06-10T10:16:16;25.30;99.90
7206;DHT22;3644;53.480;10.004;2023-06-10T10:18:46;25.50;99.90
7206;DHT22;3644;53.480;10.004;2023-06-10T10:21:15;25.60;99.90
7206;DHT22;3644;53.480;10.004;2023-06-10T10:23:52;26.00;99.90
7206;DHT22;3644;53.480;10.004;2023-06-10T10:26:21;25.60;99.90
7206;DHT22;3644;53.480;10.004;2023-06-10T10:31:50;25.40;99.90
7206;DHT22;3644;53.480;10.004;2023-06-10T10:34:24;25.70;99.90
7206;DHT22;3644;53.480;10.004;2023-06-10T10:36:50;26.20;99.90
7206;DHT22;3644;53.480;10.004;2023-06-10T10:39:17;25.90;99.90
7206;DHT22;3644;53.480;10.004;2023-06-10T10:41:43;26.00;99.90
7206;DHT22;3644;53.480;10.004;2023-06-10T10:44:09;25.70;99.90
7206;DHT22;3644;53.480;10.004;2023-06-10T10:46:49;25.90;99.90
7206;DHT22;3644;53.480;10.004;2023-06-10T10:49:15;25.80;99.90
7206;DHT22;3644;53.480;10.004;2023-06-10T10:52:02;26.00;99.90
7206;DHT22;3644;53.480;10.004;2023-06-10T10:54:32;26.10;99.90
7206;DHT22;3644;53.480;10.004;2023-06-10T10:57:17;26.00;99.90
7206;DHT22;3644;53.480;10.004;2023-06-10T11:04:57;26.40;99.90
7206;DHT22;3644;53.480;10.004;2023-06-10T11:07:25;26.40;99.90
7206;DHT22;3644;53.480;10.004;2023-06-10T11:10:08;26.40;99.90
7206;DHT22;3644;53.480;10.004;2023-06-10T11:15:12;26.40;99.90
7206;DHT22;3644;53.480;10.004;2023-06-10T11:18:11;26.60;99.90
7206;DHT22;3644;53.480;10.004;2023-06-10T11:28:36;27.50;99.90
7206;DHT22;3644;53.480;10.004;2023-06-10T11:31:01;27.40;99.90
7206;DHT22;3644;53.480;10.004;2023-06-10T11:33:27;27.60;99.90
7206;DHT22;3644;53.480;10.004;2023-06-10T11:35:53;27.50;99.90
7206;DHT22;3644;53.480;10.004;2023-06-10T11:38:19;27.50;99.90
7206;DHT22;3644;53.480;10.004;2023-06-10T11:40:48;28.10;99.90
7206;DHT22;3644;53.480;10.004;2023-06-10T11:43:17;28.00;99.90
7206;DHT22;3644;53.480;10.004;2023-06-10T11:45:42;28.20;99.90
7206;DHT22;3644;53.480;10.004;2023-06-10T11:48:09;28.10;99.90
7206;DHT22;3644;53.480;10.004;2023-06-10T11:50:35;28.20;99.90
7206;DHT22;3644;53.480;10.004;2023-06-10T11:53:01;28.30;99.90
7206;DHT22;3644;53.480;10.004;2023-06-10T11:55:47;28.00;99.90
7206;DHT22;3644;53.480;10.004;2023-06-10T11:58:21;27.90;99.90
7206;DHT22;3644;53.480;10.004;2023-06-10T12:00:51;27.80;99.90
7206;DHT22;3644;53.480;10.004;2023-06-10T12:03:19;28.00;99.90
7206;DHT22;3644;53.480;10.004;2023-06-10T12:05:58;28.10;99.90
7206;DHT22;3644;53.480;10.004;2023-06-10T12:08:24;28.00;99.90
7206;DHT22;3644;53.480;10.004;2023-06-10T12:10:50;28.20;99.90
7206;DHT22;3644;53.480;10.004;2023-06-10T12:13:15;28.20;99.90
7206;DHT22;3644;53.480;10.004;2023-06-10T12:15:43;28.40;99.90
7206;DHT22;3644;53.480;10.004;2023-06-10T12:18:16;28.60;99.90
7206;DHT22;3644;53.480;10.004;2023-06-10T12:20:42;29.00;99.90
7206;DHT22;3644;53.480;10.004;2023-06-10T12:23:11;29.00;99.90
7206;DHT22;3644;53.480;10.004;2023-06-10T12:25:38;29.10;99.90
7206;DHT22;3644;53.480;10.004;2023-06-10T12:28:04;29.40;99.90
7206;DHT22;3644;53.480;10.004;2023-06-10T12:30:30;29.70;99.90
7206;DHT22;3644;53.480;10.004;2023-06-10T12:32:56;29.90;99.90
7206;DHT22;3644;53.480;10.004;2023-06-10T12:35:26;29.50;99.90
7206;DHT22;3644;53.480;10.004;2023-06-10T12:40:32;29.20;99.90
7206;DHT22;3644;53.480;10.004;2023-06-10T12:42:58;29.10;99.90
7206;DHT22;3644;53.480;10.004;2023-06-10T12:45:32;28.80;99.90
7206;DHT22;3644;53.480;10.004;2023-06-10T12:50:31;29.70;99.90
7206;DHT22;3644;53.480;10.004;2023-06-10T12:52:57;29.50;99.90
7206;DHT22;3644;53.480;10.004;2023-06-10T12:55:22;29.70;99.90
7206;DHT22;3644;53.480;10.004;2023-06-10T12:57:49;29.90;99.90
7206;DHT22;3644;53.480;10.004;2023-06-10T13:00:15;30.20;99.90
7206;DHT22;3644;53.480;10.004;2023-06-10T13:02:41;30.60;99.90
7206;DHT22;3644;53.480;10.004;2023-06-10T13:05:06;30.30;98.90
7206;DHT22;3644;53.480;10.004;2023-06-10T13:07:32;30.40;98.00
7206;DHT22;3644;53.480;10.004;2023-06-10T13:09:58;30.60;95.00
7206;DHT22;3644;53.480;10.004;2023-06-10T13:12:25;30.80;95.50
7206;DHT22;3644;53.480;10.004;2023-06-10T13:14:54;30.50;95.70
7206;DHT22;3644;53.480;10.004;2023-06-10T13:17:20;30.70;97.20
7206;DHT22;3644;53.480;10.004;2023-06-10T13:19:46;32.20;96.90
7206;DHT22;3644;53.480;10.004;2023-06-10T13:22:11;31.20;95.40
7206;DHT22;3644;53.480;10.004;2023-06-10T13:24:39;31.40;93.60
7206;DHT22;3644;53.480;10.004;2023-06-10T13:27:05;31.10;92.70
7206;DHT22;3644;53.480;10.004;2023-06-10T13:29:32;30.80;93.40
7206;DHT22;3644;53.480;10.004;2023-06-10T13:31:57;31.00;95.20
7206;DHT22;3644;53.480;10.004;2023-06-10T13:34:23;31.30;91.50
7206;DHT22;3644;53.480;10.004;2023-06-10T13:36:48;31.30;92.70
7206;DHT22;3644;53.480;10.004;2023-06-10T13:39:14;31.50;93.40
7206;DHT22;3644;53.480;10.004;2023-06-10T13:41:40;31.50;90.40
7206;DHT22;3644;53.480;10.004;2023-06-10T13:44:06;31.10;87.20
7206;DHT22;3644;53.480;10.004;2023-06-10T13:46:32;30.70;90.10
7206;DHT22;3644;53.480;10.004;2023-06-10T13:48:57;30.30;91.30
7206;DHT22;3644;53.480;10.004;2023-06-10T13:51:23;30.40;92.60
7206;DHT22;3644;53.480;10.004;2023-06-10T13:53:48;30.70;92.10
7206;DHT22;3644;53.480;10.004;2023-06-10T13:56:17;30.80;90.70
7206;DHT22;3644;53.480;10.004;2023-06-10T13:58:43;31.20;90.10
7206;DHT22;3644;53.480;10.004;2023-06-10T14:01:08;31.00;90.50
7206;DHT22;3644;53.480;10.004;2023-06-10T14:03:34;31.30;91.80
7206;DHT22;3644;53.480;10.004;2023-06-10T14:05:59;31.70;90.20
7206;DHT22;3644;53.480;10.004;2023-06-10T14:08:25;31.80;87.50
7206;DHT22;3644;53.480;10.004;2023-06-10T14:10:50;31.90;85.30
7206;DHT22;3644;53.480;10.004;2023-06-10T14:13:17;31.70;86.50
7206;DHT22;3644;53.480;10.004;2023-06-10T14:15:43;31.90;85.80
7206;DHT22;3644;53.480;10.004;2023-06-10T14:18:08;31.60;88.90
7206;DHT22;3644;53.480;10.004;2023-06-10T14:20:34;31.10;92.10
7206;DHT22;3644;53.480;10.004;2023-06-10T14:22:59;30.50;94.30
7206;DHT22;3644;53.480;10.004;2023-06-10T14:25:25;30.00;96.30
7206;DHT22;3644;53.480;10.004;2023-06-10T14:27:50;29.80;97.80
7206;DHT22;3644;53.480;10.004;2023-06-10T14:30:16;29.30;98.90
7206;DHT22;3644;53.480;10.004;2023-06-10T14:32:42;29.20;99.90
7206;DHT22;3644;53.480;10.004;2023-06-10T14:35:08;29.10;99.90
7206;DHT22;3644;53.480;10.004;2023-06-10T14:37:34;29.40;99.90
7206;DHT22;3644;53.480;10.004;2023-06-10T14:39:59;29.70;99.90
7206;DHT22;3644;53.480;10.004;2023-06-10T14:42:25;29.50;99.90
7206;DHT22;3644;53.480;10.004;2023-06-10T14:44:50;29.20;99.90
7206;DHT22;3644;53.480;10.004;2023-06-10T14:47:16;29.30;99.90
7206;DHT22;3644;53.480;10.004;2023-06-10T14:49:41;29.20;99.90
7206;DHT22;3644;53.480;10.004;2023-06-10T14:52:08;29.20;99.90
7206;DHT22;3644;53.480;10.004;2023-06-10T14:54:33;29.20;99.90
7206;DHT22;3644;53.480;10.004;2023-06-10T14:56:59;29.30;99.90
7206;DHT22;3644;53.480;10.004;2023-06-10T14:59:24;29.30;99.90
7206;DHT22;3644;53.480;10.004;2023-06-10T15:01:50;29.40;99.90
7206;DHT22;3644;53.480;10.004;2023-06-10T15:04:16;29.30;99.90
7206;DHT22;3644;53.480;10.004;2023-06-10T15:06:41;29.00;99.90
7206;DHT22;3644;53.480;10.004;2023-06-10T15:09:07;29.10;99.90
7206;DHT22;3644;53.480;10.004;2023-06-10T15:11:33;28.90;99.90
7206;DHT22;3644;53.480;10.004;2023-06-10T15:13:58;29.00;99.90
7206;DHT22;3644;53.480;10.004;2023-06-10T15:16:24;28.90;99.90
7206;DHT22;3644;53.480;10.004;2023-06-10T15:18:49;28.90;99.90
7206;DHT22;3644;53.480;10.004;2023-06-10T15:21:15;29.00;99.90
7206;DHT22;3644;53.480;10.004;2023-06-10T15:23:41;29.40;99.90
7206;DHT22;3644;53.480;10.004;2023-06-10T15:26:06;28.90;99.90
7206;DHT22;3644;53.480;10.004;2023-06-10T15:28:32;28.90;99.90
7206;DHT22;3644;53.480;10.004;2023-06-10T15:30:57;28.90;99.90
7206;DHT22;3644;53.480;10.004;2023-06-10T15:33:23;28.60;99.90
7206;DHT22;3644;53.480;10.004;2023-06-10T15:35:48;28.80;99.90
7206;DHT22;3644;53.480;10.004;2023-06-10T15:38:14;28.80;99.90
7206;DHT22;3644;53.480;10.004;2023-06-10T15:40:41;28.80;99.90
7206;DHT22;3644;53.480;10.004;2023-06-10T15:43:06;28.60;99.90
7206;DHT22;3644;53.480;10.004;2023-06-10T15:45:32;28.60;99.90
7206;DHT22;3644;53.480;10.004;2023-06-10T15:47:57;28.50;99.90
7206;DHT22;3644;53.480;10.004;2023-06-10T15:50:23;28.40;99.90
7206;DHT22;3644;53.480;10.004;2023-06-10T15:52:49;28.50;99.90
7206;DHT22;3644;53.480;10.004;2023-06-10T15:55:14;28.80;99.90
7206;DHT22;3644;53.480;10.004;2023-06-10T15:57:40;28.80;99.90
7206;DHT22;3644;53.480;10.004;2023-06-10T16:00:06;28.60;99.90
7206;DHT22;3644;53.480;10.004;2023-06-10T16:02:33;28.60;99.90
7206;DHT22;3644;53.480;10.004;2023-06-10T16:04:59;28.70;99.90
7206;DHT22;3644;53.480;10.004;2023-06-10T16:07:24;28.60;99.90
7206;DHT22;3644;53.480;10.004;2023-06-10T16:09:50;28.80;99.90